Impacts TAF Board
For situational awareness. Not to be used for flight planning purposes.
IDs:

KCLL - College Station/East, TX, US

Issued at 1140 UTC 13 Dec 2019
Updated at 1353 UTC 13 Dec 2019
Potential Impact None Slight Moderate High
Time1326Z 13/14Z 13/15Z 13/16Z 13/17Z 13/18Z 13/19Z 13/20Z 13/21Z 13/22Z 13/23Z 14/00Z 14/01Z 14/02Z>>
Type OBS PRVL
  [TEMP]  
PRVL PRVL PRVL PRVL PRVL PRVL PRVL PRVL PRVL PRVL PRVL PRVL
VIS 0.25 1
  [0.25]  
>6 >6 >6 >6 >6 >6 >6 >6 >6 >6 >6 >6
CIG 2 5
  [2]  
-- -- -- -- -- -- -- -- -- -- -- --
Cover OVC OVC
  [OVC]  
SCT SCT SKC SKC SKC SKC SKC SKC SKC SKC SKC SKC
FltCat LIFR IFR
  [LIFR]  
VFR VFR VFR VFR VFR VFR VFR VFR VFR VFR VFR VFR
WX FG BR
  [FG]  
-- -- -- -- -- -- -- -- -- -- MIFG MIFG
WDir 190 200
[200]
220 220 240 240 240 240 280 280 280 280 340 340
WSpd 7 4
  [4]  
8 8 12 12 12 12 8 8 8 8 4 4
WGst -- --
  [--]  
-- -- -- -- -- -- -- -- -- -- -- --
Raw TAF
KCLL 131140Z 1312/1412 20004KT 1SM BR OVC005
  TEMPO 1313/1315 1/4SM FG OVC002
  FM131500 22008KT P6SM SCT015 SCT045
  FM131700 24012KT P6SM SKC
  FM132100 28008KT P6SM SKC
  FM140100 34004KT P6SM MIFG SKC


Raw METAR
KCLL 131326Z AUTO 19007KT 1/4SM FG OVC002 12/12 A2997 RMK AO2 T01220117
KCLL 131313Z AUTO 19005KT 1 3/4SM BR OVC003 13/12 A2997 RMK AO2 T01280117
KCLL 131253Z AUTO 17004KT 6SM BR BKN004 OVC018 12/11 A2996 RMK AO2 SLP145 T01170111
KCLL 131153Z AUTO 18003KT 5SM BR FEW003 OVC016 12/11 A2997 RMK AO2 SLP147 T01170106 10117 20089 57011 $
KCLL 131139Z AUTO 00000KT 3SM BR SCT004 SCT007 OVC013 12/11 A2997 RMK AO2 T01170106 $
KCLL 131131Z AUTO 00000KT 1 1/4SM BR BKN002 OVC013 12/11 A2998 RMK AO2 T01170106 $
KCLL 131120Z AUTO 00000KT 3/4SM BR VV002 12/11 A2998 RMK AO2 T01170106 $
KCLL 131053Z AUTO 20003KT 1/4SM FG VV002 12/11 A2998 RMK AO2 SLP150 T01170111 $
KCLL 131045Z AUTO 20004KT 1/4SM FG VV002 12/11 A2998 RMK AO2 T01170111 $

METAR Board
Radar Display
Forecast Discussion
For situational awareness. Not to be used for flight planning purposes.